Buoy 13519

sailwx.info

Track history (hours):
 
Tides and Currents Weather Stations Pressure Air Temp Water Temp Dewpoint Dewpoint Depression Visibility Wind Speed Wind Dir Waves Ship Positions

Drifting buoy 13519

Last reported at 2015-May-27 11:00 UTC. Time now 2015-May-27 11:53 UTC.
Position N 17°03' W 033°01'.

Barometer 1018.9 mb
Water temperature 23.2 ° C

Date/timePositionNaut miles runAvg speedWind from/ knotsBaromVisibWave heightAir tempDewpointWater temp
2015-May-27 11:00N 17°03' W 033°01'0 0.0 1018.9 23.2
2015-May-27 10:00N 17°03' W 033°01'1 0.5 1018.9 23.2
2015-May-27 08:00N 17°04' W 033°02'1 0.7 1018.1 23.2
2015-May-27 07:00N 17°04' W 033°02'0 0.3 1017.9 23.2
2015-May-27 06:00N 17°04' W 033°01'1 0.1 1017.6 23.2
2015-May-26 18:00N 17°05' W 033°00'1 0.6 1017.1 23.3
2015-May-26 16:00N 17°05' W 032°59'0 0.3 1017.8 23.3
2015-May-26 15:00N 17°05' W 032°59'0 0.3 1017.9 23.3
2015-May-26 14:00N 17°05' W 032°59'0 0.1 1018.2 23.2
2015-May-26 12:00N 17°05' W 032°59'2 0.4 1018.9 23.2
2015-May-26 08:00N 17°05' W 032°57'1 1.1 1018.1 23.2
2015-May-26 07:00N 17°06' W 032°58'0 0.1 1017.6 23.2
2015-May-25 23:00N 17°06' W 032°57'0 0.1 1018.9 23.3
2015-May-25 22:00N 17°06' W 032°58'1 0.7 1018.7 23.3
2015-May-25 20:00N 17°05' W 032°56'0 0.5 1017.6 23.4
2015-May-25 19:00N 17°05' W 032°56'0 0.1 1017.1 23.4
2015-May-25 18:00N 17°05' W 032°56'2 1.7 1017.2 23.4
2015-May-25 17:00N 17°04' W 032°55'1 0.4 1017.6 23.4
2015-May-25 15:00N 17°05' W 032°54'2 0.2 1017.9 23.4
2015-May-25 04:00N 17°05' W 032°52'2 0.3 1018.2 23.3
2015-May-24 23:00N 17°06' W 032°50'0 0.0 1019.4 23.3
2015-May-24 19:00N 17°06' W 032°50'1 1.1 1017.2 23.3
2015-May-24 18:00N 17°06' W 032°49'1 0.2 1016.8 23.4
2015-May-24 12:00N 17°06' W 032°48'1 0.5 1018.5 23.3
2015-May-24 11:00N 17°05' W 032°47'0 0.0 1018.1 23.3
2015-May-24 10:00N 17°05' W 032°47'0 0.2 1018.2 23.3
2015-May-24 08:00N 17°06' W 032°47'2 0.5 1017.5 23.3
2015-May-24 04:00N 17°05' W 032°46'2 0.3 1017.6 23.3
2015-May-23 19:00N 17°05' W 032°43'5 0.5 1017.3 23.3
2015-May-23 08:00N 17°04' W 032°38'1 1.3 1018.9 23.3
2015-May-23 07:00N 17°06' W 032°38'4 0.5 1018.4 23.3
2015-May-23 00:00N 17°04' W 032°35'1 0.2 1021.0 23.3
2015-May-22 20:00N 17°04' W 032°34'3 0.3 1019.8 23.4
2015-May-22 11:00N 17°03' W 032°31'0 0.0 1021.0 23.3
2015-May-22 09:00N 17°03' W 032°31'2 0.2 1020.3 23.3
2015-May-22 00:00N 17°02' W 032°30'3 0.4 1021.2 23.4
2015-May-21 16:00N 16°60' W 032°28'0 0.0 1019.1 23.4
2015-May-21 15:00N 16°60' W 032°28'2 1.1 1019.5 23.4
2015-May-21 13:00N 16°59' W 032°25'2 0.1 1020.0 23.4
2015-May-20 23:00N 16°58' W 032°24'1 1.2 1018.9 23.4
2015-May-20 22:00N 16°57' W 032°23'3 0.2 1018.2 23.4
2015-May-20 11:00N 16°55' W 032°22'0 0.0 1018.8 23.4
2015-May-20 10:00N 16°55' W 032°22'2 0.6 1018.4 23.4
2015-May-20 07:00N 16°54' W 032°20'1 1.1 1017.5 23.4
2015-May-20 06:00N 16°55' W 032°21'1 0.4 1017.3 23.4
2015-May-20 04:00N 16°55' W 032°22'1 0.8 1017.5 23.4
2015-May-20 03:00N 16°54' W 032°22'1 0.2 1017.8 23.4
2015-May-19 20:00N 16°54' W 032°20'0 0.2 1016.2 23.5
2015-May-19 18:00N 16°54' W 032°21'0 0.0 1015.7 23.5
2015-May-19 12:00N 16°54' W 032°21'0 0.0 1017.2 23.4
2015-May-19 11:00N 16°54' W 032°21'0 0.1 1017.2 23.3
2015-May-19 09:00N 16°54' W 032°21'0 0.1 1016.3 23.3
2015-May-19 06:00N 16°54' W 032°21'0 0.1 1015.7 23.3
2015-May-19 05:00N 16°54' W 032°21'1 0.9 1016.0 23.3
2015-May-19 04:00N 16°54' W 032°22'1 0.9 1016.3 23.3
2015-May-19 03:00N 16°53' W 032°22'0 0.0 1016.8 23.3
2015-May-19 00:00N 16°53' W 032°22'1 0.6 1016.9 23.4
2015-May-18 23:00N 16°52' W 032°21'0 0.4 1016.6 23.4
2015-May-18 22:00N 16°52' W 032°21'0 0.1 1016.4 23.4
2015-May-18 20:00N 16°52' W 032°21'0 0.2 1015.2 23.4
2015-May-18 18:00N 16°52' W 032°21'0 0.5 1014.7 23.5
2015-May-18 17:00N 16°53' W 032°20'1 0.2 1015.2 23.5
2015-May-18 14:00N 16°52' W 032°21'0 0.1 1016.0 23.4
2015-May-18 12:00N 16°52' W 032°21'0 0.0 1016.3 23.3
2015-May-18 11:00N 16°52' W 032°21'0 0.0 1016.1 23.3
2015-May-18 10:00N 16°52' W 032°21'1 0.3 1016.0 23.3
2015-May-18 08:00N 16°53' W 032°21'0 0.0 1015.2 23.3
2015-May-18 07:00N 16°53' W 032°21'0 0.2 1014.9 23.4
2015-May-18 05:00N 16°53' W 032°21'1 0.1 1015.3 23.4
2015-May-18 00:00N 16°53' W 032°21'1 0.8 1017.0 23.4
2015-May-17 23:00N 16°53' W 032°22'1 0.8 1016.6 23.4
2015-May-17 22:00N 16°52' W 032°21'1 0.8 1016.3 23.4
2015-May-17 21:00N 16°53' W 032°22'2 1.0 1015.9 23.4
2015-May-17 19:00N 16°52' W 032°20'1 0.3 1015.2 23.5
2015-May-17 17:00N 16°53' W 032°21'0 0.2 1015.1 23.5
2015-May-17 15:00N 16°52' W 032°20'0 0.0 1015.7 23.4
2015-May-17 14:00N 16°52' W 032°20'0 0.2 1016.4 23.4
2015-May-17 12:00N 16°52' W 032°21'0 0.2 1017.0 23.3
2015-May-17 11:00N 16°52' W 032°21'   1017.5 23.3
Track history (hours):
 
Tides and Currents Weather Stations Pressure Air Temp Water Temp Dewpoint Dewpoint Depression Visibility Wind Speed Wind Dir Waves Ship Positions

Drifting buoy 13519

Last reported at 2015-May-27 11:00 UTC. Time now 2015-May-27 11:53 UTC.
Position N 17°03' W 033°01'.

Barometer 1018.9 mb
Water temperature 23.2 ° C

Date/timePositionNaut miles runAvg speedWind from/ knotsBaromVisibWave heightAir tempDewpointWater temp
2015-May-27 11:00N 17°03' W 033°01'0 0.0 1018.9 23.2
2015-May-27 10:00N 17°03' W 033°01'1 0.5 1018.9 23.2
2015-May-27 08:00N 17°04' W 033°02'1 0.7 1018.1 23.2
2015-May-27 07:00N 17°04' W 033°02'0 0.3 1017.9 23.2
2015-May-27 06:00N 17°04' W 033°01'1 0.1 1017.6 23.2
2015-May-26 18:00N 17°05' W 033°00'1 0.6 1017.1 23.3
2015-May-26 16:00N 17°05' W 032°59'0 0.3 1017.8 23.3
2015-May-26 15:00N 17°05' W 032°59'0 0.3 1017.9 23.3
2015-May-26 14:00N 17°05' W 032°59'0 0.1 1018.2 23.2
2015-May-26 12:00N 17°05' W 032°59'2 0.4 1018.9 23.2
2015-May-26 08:00N 17°05' W 032°57'1 1.1 1018.1 23.2
2015-May-26 07:00N 17°06' W 032°58'0 0.1 1017.6 23.2
2015-May-25 23:00N 17°06' W 032°57'0 0.1 1018.9 23.3
2015-May-25 22:00N 17°06' W 032°58'1 0.7 1018.7 23.3
2015-May-25 20:00N 17°05' W 032°56'0 0.5 1017.6 23.4
2015-May-25 19:00N 17°05' W 032°56'0 0.1 1017.1 23.4
2015-May-25 18:00N 17°05' W 032°56'2 1.7 1017.2 23.4
2015-May-25 17:00N 17°04' W 032°55'1 0.4 1017.6 23.4
2015-May-25 15:00N 17°05' W 032°54'2 0.2 1017.9 23.4
2015-May-25 04:00N 17°05' W 032°52'2 0.3 1018.2 23.3
2015-May-24 23:00N 17°06' W 032°50'0 0.0 1019.4 23.3
2015-May-24 19:00N 17°06' W 032°50'1 1.1 1017.2 23.3
2015-May-24 18:00N 17°06' W 032°49'1 0.2 1016.8 23.4
2015-May-24 12:00N 17°06' W 032°48'1 0.5 1018.5 23.3
2015-May-24 11:00N 17°05' W 032°47'0 0.0 1018.1 23.3
2015-May-24 10:00N 17°05' W 032°47'0 0.2 1018.2 23.3
2015-May-24 08:00N 17°06' W 032°47'2 0.5 1017.5 23.3
2015-May-24 04:00N 17°05' W 032°46'2 0.3 1017.6 23.3
2015-May-23 19:00N 17°05' W 032°43'5 0.5 1017.3 23.3
2015-May-23 08:00N 17°04' W 032°38'1 1.3 1018.9 23.3
2015-May-23 07:00N 17°06' W 032°38'4 0.5 1018.4 23.3
2015-May-23 00:00N 17°04' W 032°35'1 0.2 1021.0 23.3
2015-May-22 20:00N 17°04' W 032°34'3 0.3 1019.8 23.4
2015-May-22 11:00N 17°03' W 032°31'0 0.0 1021.0 23.3
2015-May-22 09:00N 17°03' W 032°31'2 0.2 1020.3 23.3
2015-May-22 00:00N 17°02' W 032°30'3 0.4 1021.2 23.4
2015-May-21 16:00N 16°60' W 032°28'0 0.0 1019.1 23.4
2015-May-21 15:00N 16°60' W 032°28'2 1.1 1019.5 23.4
2015-May-21 13:00N 16°59' W 032°25'2 0.1 1020.0 23.4
2015-May-20 23:00N 16°58' W 032°24'1 1.2 1018.9 23.4
2015-May-20 22:00N 16°57' W 032°23'3 0.2 1018.2 23.4
2015-May-20 11:00N 16°55' W 032°22'0 0.0 1018.8 23.4
2015-May-20 10:00N 16°55' W 032°22'2 0.6 1018.4 23.4
2015-May-20 07:00N 16°54' W 032°20'1 1.1 1017.5 23.4
2015-May-20 06:00N 16°55' W 032°21'1 0.4 1017.3 23.4
2015-May-20 04:00N 16°55' W 032°22'1 0.8 1017.5 23.4
2015-May-20 03:00N 16°54' W 032°22'1 0.2 1017.8 23.4
2015-May-19 20:00N 16°54' W 032°20'0 0.2 1016.2 23.5
2015-May-19 18:00N 16°54' W 032°21'0 0.0 1015.7 23.5
2015-May-19 12:00N 16°54' W 032°21'0 0.0 1017.2 23.4
2015-May-19 11:00N 16°54' W 032°21'0 0.1 1017.2 23.3
2015-May-19 09:00N 16°54' W 032°21'0 0.1 1016.3 23.3
2015-May-19 06:00N 16°54' W 032°21'0 0.1 1015.7 23.3
2015-May-19 05:00N 16°54' W 032°21'1 0.9 1016.0 23.3
2015-May-19 04:00N 16°54' W 032°22'1 0.9 1016.3 23.3
2015-May-19 03:00N 16°53' W 032°22'0 0.0 1016.8 23.3
2015-May-19 00:00N 16°53' W 032°22'1 0.6 1016.9 23.4
2015-May-18 23:00N 16°52' W 032°21'0 0.4 1016.6 23.4
2015-May-18 22:00N 16°52' W 032°21'0 0.1 1016.4 23.4
2015-May-18 20:00N 16°52' W 032°21'0 0.2 1015.2 23.4
2015-May-18 18:00N 16°52' W 032°21'0 0.5 1014.7 23.5
2015-May-18 17:00N 16°53' W 032°20'1 0.2 1015.2 23.5
2015-May-18 14:00N 16°52' W 032°21'0 0.1 1016.0 23.4
2015-May-18 12:00N 16°52' W 032°21'0 0.0 1016.3 23.3
2015-May-18 11:00N 16°52' W 032°21'0 0.0 1016.1 23.3
2015-May-18 10:00N 16°52' W 032°21'1 0.3 1016.0 23.3
2015-May-18 08:00N 16°53' W 032°21'0 0.0 1015.2 23.3
2015-May-18 07:00N 16°53' W 032°21'0 0.2 1014.9 23.4
2015-May-18 05:00N 16°53' W 032°21'1 0.1 1015.3 23.4
2015-May-18 00:00N 16°53' W 032°21'1 0.8 1017.0 23.4
2015-May-17 23:00N 16°53' W 032°22'1 0.8 1016.6 23.4
2015-May-17 22:00N 16°52' W 032°21'1 0.8 1016.3 23.4
2015-May-17 21:00N 16°53' W 032°22'2 1.0 1015.9 23.4
2015-May-17 19:00N 16°52' W 032°20'1 0.3 1015.2 23.5
2015-May-17 17:00N 16°53' W 032°21'0 0.2 1015.1 23.5
2015-May-17 15:00N 16°52' W 032°20'0 0.0 1015.7 23.4
2015-May-17 14:00N 16°52' W 032°20'0 0.2 1016.4 23.4
2015-May-17 12:00N 16°52' W 032°21'0 0.2 1017.0 23.3
2015-May-17 11:00N 16°52' W 032°21'   1017.5 23.3

Dump ship's entire track history